createdAt,value
2023-01-01T00:00:50.749Z,12.00
2023-01-01T00:03:18.738Z,12.00
2023-01-01T00:05:47.376Z,12.00
2023-01-01T00:08:15.794Z,12.00
2023-01-01T00:10:44.051Z,11.90
2023-01-01T00:13:14.697Z,11.90
2023-01-01T00:15:42.504Z,11.90
2023-01-01T00:18:10.356Z,11.90
2023-01-01T00:20:39.358Z,11.90
2023-01-01T00:23:07.301Z,11.90
2023-01-01T00:25:35.556Z,11.90
2023-01-01T00:28:03.463Z,11.90
2023-01-01T00:30:31.089Z,11.90
2023-01-01T00:32:58.901Z,11.90
2023-01-01T00:35:27.658Z,11.90
2023-01-01T00:37:56.059Z,11.90
2023-01-01T00:40:26.948Z,11.90
2023-01-01T00:42:54.331Z,11.90
2023-01-01T00:45:23.016Z,11.90
2023-01-01T00:47:52.941Z,11.80
2023-01-01T00:50:23.516Z,11.90
2023-01-01T00:52:50.771Z,11.80
2023-01-01T00:55:18.729Z,11.80
2023-01-01T00:57:46.636Z,11.80
2023-01-01T01:00:17.071Z,11.80
2023-01-01T01:02:44.919Z,11.80
2023-01-01T01:05:13.030Z,11.80
2023-01-01T01:07:41.110Z,11.80
2023-01-01T01:10:10.051Z,11.80
2023-01-01T01:12:39.465Z,11.80
2023-01-01T01:15:08.087Z,11.80
2023-01-01T01:17:39.000Z,11.90
2023-01-01T01:20:09.345Z,11.80
2023-01-01T01:22:37.785Z,11.90
2023-01-01T01:25:06.993Z,11.90
2023-01-01T01:27:34.978Z,11.90
2023-01-01T01:30:02.682Z,11.90
2023-01-01T01:32:30.406Z,11.90
2023-01-01T01:34:58.330Z,11.90
2023-01-01T01:37:26.239Z,11.90
2023-01-01T01:39:54.580Z,11.90
2023-01-01T01:42:23.307Z,11.90
2023-01-01T01:44:56.904Z,11.90
2023-01-01T01:47:40.658Z,11.90
2023-01-01T01:50:33.455Z,11.90
2023-01-01T01:53:14.435Z,11.80
2023-01-01T01:55:48.182Z,11.80
2023-01-01T01:58:17.727Z,11.90
2023-01-01T02:00:45.560Z,11.80
2023-01-01T02:03:23.315Z,11.80
2023-01-01T02:05:51.937Z,11.80
2023-01-01T02:08:21.418Z,11.80
2023-01-01T02:10:50.541Z,11.80
2023-01-01T02:13:21.450Z,11.80
2023-01-01T02:16:07.719Z,11.80
2023-01-01T02:18:44.995Z,11.80
2023-01-01T02:21:16.644Z,11.80
2023-01-01T02:24:03.373Z,11.90
2023-01-01T02:26:46.327Z,11.90
2023-01-01T02:29:38.739Z,11.90
2023-01-01T02:32:25.626Z,11.90
2023-01-01T02:35:00.071Z,11.90
2023-01-01T02:37:29.850Z,11.90
2023-01-01T02:40:00.189Z,11.80
2023-01-01T02:42:30.159Z,11.80
2023-01-01T02:45:00.532Z,11.90
2023-01-01T02:47:28.287Z,11.90
2023-01-01T02:49:59.947Z,11.80
2023-01-01T02:52:49.819Z,11.80
2023-01-01T02:55:23.969Z,11.90
2023-01-01T02:57:55.338Z,11.80
2023-01-01T03:00:29.918Z,11.80
2023-01-01T03:03:22.984Z,11.80
2023-01-01T03:06:22.588Z,11.90
2023-01-01T03:08:57.298Z,11.90
2023-01-01T03:11:28.427Z,11.80
2023-01-01T03:14:24.360Z,11.80
2023-01-01T03:17:02.090Z,11.80
2023-01-01T03:19:33.018Z,11.80
2023-01-01T03:22:16.048Z,11.80
2023-01-01T03:24:50.159Z,11.80
2023-01-01T03:27:24.930Z,11.80
2023-01-01T03:29:56.360Z,11.80
2023-01-01T03:32:55.136Z,11.80
2023-01-01T03:35:31.568Z,11.80
2023-01-01T03:38:01.890Z,11.80
2023-01-01T03:40:33.181Z,11.80
2023-01-01T03:43:07.440Z,11.90
2023-01-01T03:45:41.584Z,11.80
2023-01-01T03:48:10.396Z,11.80
2023-01-01T03:51:01.182Z,11.80
2023-01-01T03:53:40.974Z,11.80
2023-01-01T03:56:31.423Z,11.80
2023-01-01T03:59:12.470Z,11.80
2023-01-01T04:01:49.831Z,11.80
2023-01-01T04:04:17.953Z,11.80
2023-01-01T04:07:14.035Z,11.80
2023-01-01T04:09:33.778Z,11.80
2023-01-01T04:12:02.185Z,11.80
2023-01-01T04:14:32.524Z,11.80
2023-01-01T04:17:01.048Z,11.80
2023-01-01T04:19:29.252Z,11.80
2023-01-01T04:21:56.852Z,11.80
2023-01-01T04:24:24.902Z,11.80
2023-01-01T04:26:54.022Z,11.80
2023-01-01T04:29:22.760Z,11.80
2023-01-01T04:31:50.982Z,11.90
2023-01-01T04:34:20.280Z,11.80
2023-01-01T04:36:48.149Z,11.80
2023-01-01T04:39:16.282Z,11.80
2023-01-01T04:41:45.768Z,11.80
2023-01-01T04:44:13.628Z,11.80
2023-01-01T04:46:42.789Z,11.80
2023-01-01T04:49:10.591Z,11.70
2023-01-01T04:51:38.524Z,11.80
2023-01-01T04:54:07.543Z,11.80
2023-01-01T04:56:35.504Z,11.80
2023-01-01T04:59:03.955Z,11.80
2023-01-01T05:01:32.734Z,11.80
2023-01-01T05:04:00.559Z,11.80
2023-01-01T05:06:29.286Z,11.80
2023-01-01T05:08:57.915Z,11.80
2023-01-01T05:11:30.172Z,11.80
2023-01-01T05:14:00.830Z,11.70
2023-01-01T05:16:31.398Z,11.80
2023-01-01T05:18:59.981Z,11.80
2023-01-01T05:21:33.135Z,11.70
2023-01-01T05:24:04.244Z,11.70
2023-01-01T05:26:34.822Z,11.80
2023-01-01T05:29:02.739Z,11.70
2023-01-01T05:31:33.500Z,11.70
2023-01-01T05:36:37.861Z,11.70
2023-01-01T05:39:07.371Z,11.80
2023-01-01T05:41:37.435Z,11.70
2023-01-01T05:44:09.184Z,11.70
2023-01-01T05:46:37.495Z,11.80
2023-01-01T05:49:07.363Z,11.70
2023-01-01T05:54:02.717Z,11.80
2023-01-01T05:56:30.273Z,11.80
2023-01-01T05:58:58.000Z,11.80
2023-01-01T06:01:31.794Z,11.80
2023-01-01T06:04:00.432Z,11.70
2023-01-01T06:06:31.284Z,11.70
2023-01-01T06:09:01.563Z,11.70
2023-01-01T06:11:31.492Z,11.70
2023-01-01T06:14:02.636Z,11.70
2023-01-01T06:16:31.844Z,11.70
2023-01-01T06:19:00.371Z,11.70
2023-01-01T06:21:29.905Z,11.70
2023-01-01T06:24:00.295Z,11.70
2023-01-01T06:26:33.595Z,11.70
2023-01-01T06:29:03.359Z,11.80
2023-01-01T06:31:36.815Z,11.70
2023-01-01T06:34:01.161Z,11.70
2023-01-01T06:36:29.583Z,11.70
2023-01-01T06:38:58.884Z,11.70
2023-01-01T06:41:28.280Z,11.70
2023-01-01T06:43:57.124Z,11.80
2023-01-01T06:46:31.550Z,11.70
2023-01-01T06:49:01.807Z,11.70
2023-01-01T06:51:32.066Z,11.70
2023-01-01T06:54:01.402Z,11.80
2023-01-01T06:56:32.384Z,11.80
2023-01-01T06:59:01.244Z,11.80
2023-01-01T07:01:31.626Z,11.80
2023-01-01T07:04:08.695Z,11.80
2023-01-01T07:06:37.894Z,11.80
2023-01-01T07:09:07.764Z,11.90
2023-01-01T07:11:36.372Z,11.80
2023-01-01T07:14:04.365Z,11.80
2023-01-01T07:16:32.336Z,11.80
2023-01-01T07:18:59.502Z,11.90
2023-01-01T07:21:45.352Z,11.80
2023-01-01T07:24:15.408Z,11.90
2023-01-01T07:26:46.577Z,11.80
2023-01-01T07:29:14.472Z,11.80
2023-01-01T07:31:44.118Z,11.80
2023-01-01T07:34:17.330Z,11.90
2023-01-01T07:36:45.019Z,11.90
2023-01-01T07:39:12.568Z,11.90
2023-01-01T07:41:40.770Z,11.90
2023-01-01T07:44:08.601Z,11.90
2023-01-01T07:46:37.033Z,11.90
2023-01-01T07:49:05.573Z,11.90
2023-01-01T07:51:36.794Z,11.90
2023-01-01T07:54:07.405Z,11.90
2023-01-01T07:56:35.609Z,11.90
2023-01-01T07:59:04.385Z,12.00
2023-01-01T08:01:32.260Z,12.00
2023-01-01T08:03:59.855Z,12.00
2023-01-01T08:06:27.721Z,12.00
2023-01-01T08:08:55.484Z,12.00
2023-01-01T08:11:23.617Z,12.00
2023-01-01T08:13:51.628Z,12.00
2023-01-01T08:16:19.345Z,12.00
2023-01-01T08:18:47.989Z,12.00
2023-01-01T08:21:17.881Z,12.00
2023-01-01T08:23:46.333Z,12.00
2023-01-01T08:26:18.799Z,12.00
2023-01-01T08:28:49.706Z,12.00
2023-01-01T08:31:16.650Z,12.00
2023-01-01T08:33:44.408Z,12.00
2023-01-01T08:36:14.573Z,12.10
2023-01-01T08:38:43.417Z,12.10
2023-01-01T08:41:10.611Z,12.10
2023-01-01T08:43:39.447Z,12.10
2023-01-01T08:46:06.636Z,12.20
2023-01-01T08:48:35.134Z,12.20
2023-01-01T08:51:02.766Z,12.20
2023-01-01T08:53:31.436Z,12.20
2023-01-01T08:56:05.501Z,12.30
2023-01-01T08:58:35.717Z,12.30
2023-01-01T09:01:04.860Z,12.30
2023-01-01T09:03:34.156Z,12.30
2023-01-01T09:06:03.942Z,12.30
2023-01-01T09:08:31.799Z,12.30
2023-01-01T09:11:01.527Z,12.40
2023-01-01T09:13:30.444Z,12.30
2023-01-01T09:15:59.121Z,12.40
2023-01-01T09:18:26.615Z,12.40
2023-01-01T09:20:54.302Z,12.40
2023-01-01T09:23:22.317Z,12.40
2023-01-01T09:25:50.150Z,12.40
2023-01-01T09:28:25.176Z,12.50
2023-01-01T09:30:51.667Z,12.50
2023-01-01T09:33:19.624Z,12.50
2023-01-01T09:35:47.952Z,12.50
2023-01-01T09:38:15.637Z,12.50
2023-01-01T09:40:55.971Z,12.50
2023-01-01T09:43:42.837Z,12.50
2023-01-01T09:46:11.514Z,12.50
2023-01-01T09:48:52.467Z,12.50
2023-01-01T09:51:23.303Z,12.50
2023-01-01T09:54:00.613Z,12.60
2023-01-01T09:56:31.073Z,12.60
2023-01-01T09:59:04.631Z,12.60
2023-01-01T10:01:39.081Z,12.70
2023-01-01T10:04:29.235Z,12.70
2023-01-01T10:07:17.962Z,12.80
2023-01-01T10:10:01.415Z,12.80
2023-01-01T10:13:01.808Z,12.80
2023-01-01T10:15:34.900Z,12.80
2023-01-01T10:18:06.210Z,12.80
2023-01-01T10:20:42.029Z,12.80
2023-01-01T10:23:16.868Z,12.80
2023-01-01T10:25:48.396Z,12.80
2023-01-01T10:28:26.924Z,12.90
2023-01-01T10:30:58.968Z,12.90
2023-01-01T10:33:27.047Z,12.90
2023-01-01T10:36:08.399Z,12.90
2023-01-01T10:38:38.031Z,12.90
2023-01-01T10:41:18.984Z,13.00
2023-01-01T10:43:41.113Z,13.00
2023-01-01T10:46:12.748Z,13.00
2023-01-01T10:48:41.429Z,13.10
2023-01-01T10:51:15.408Z,13.10
2023-01-01T10:53:53.327Z,13.10
2023-01-01T10:56:23.930Z,13.20
2023-01-01T10:58:55.321Z,13.30
2023-01-01T11:01:31.660Z,13.30
2023-01-01T11:04:02.533Z,13.30
2023-01-01T11:06:48.149Z,13.40
2023-01-01T11:09:32.363Z,13.40
2023-01-01T11:12:08.007Z,13.50
2023-01-01T11:14:41.135Z,13.50
2023-01-01T11:17:10.252Z,13.50
2023-01-01T11:19:44.344Z,13.50
2023-01-01T11:22:14.784Z,13.60
2023-01-01T11:24:44.952Z,13.50
2023-01-01T11:27:22.469Z,13.60
2023-01-01T11:29:54.992Z,13.60
2023-01-01T11:32:27.109Z,13.60
2023-01-01T11:35:01.476Z,13.60
2023-01-01T11:37:39.186Z,13.60
2023-01-01T11:40:11.271Z,13.60
2023-01-01T11:42:42.488Z,13.60
2023-01-01T11:45:20.319Z,13.60
2023-01-01T11:48:00.312Z,13.60
2023-01-01T11:50:37.133Z,13.50
2023-01-01T11:53:26.569Z,13.60
2023-01-01T11:56:13.121Z,13.50
2023-01-01T11:58:50.789Z,13.60
2023-01-01T12:01:35.162Z,13.60
2023-01-01T12:04:09.579Z,13.50
2023-01-01T12:07:04.892Z,13.60
2023-01-01T12:09:45.437Z,13.60
2023-01-01T12:12:33.813Z,13.60
2023-01-01T12:15:17.764Z,13.60
2023-01-01T12:17:52.605Z,13.60
2023-01-01T12:20:30.004Z,13.50
2023-01-01T12:22:59.375Z,13.60
2023-01-01T12:25:43.189Z,13.60
2023-01-01T12:28:29.317Z,13.60
2023-01-01T12:31:32.625Z,13.70
2023-01-01T12:34:14.508Z,13.70
2023-01-01T12:36:49.063Z,13.80
2023-01-01T12:39:51.460Z,13.70
2023-01-01T12:42:24.649Z,13.80
2023-01-01T12:45:16.687Z,13.80
2023-01-01T12:48:21.858Z,13.80
2023-01-01T12:51:05.639Z,13.70
2023-01-01T12:53:57.955Z,13.80
2023-01-01T12:56:35.094Z,13.80
2023-01-01T12:59:06.590Z,13.70
2023-01-01T13:01:36.972Z,13.70
2023-01-01T13:04:23.198Z,13.70
2023-01-01T13:06:56.360Z,13.70
2023-01-01T13:09:28.062Z,13.70
2023-01-01T13:12:03.053Z,13.70
2023-01-01T13:14:31.533Z,13.70
2023-01-01T13:16:59.435Z,13.60
2023-01-01T13:19:35.157Z,13.60
2023-01-01T13:22:09.498Z,13.60
2023-01-01T13:24:38.972Z,13.50
2023-01-01T13:27:13.170Z,13.50
2023-01-01T13:29:44.229Z,13.60
2023-01-01T13:32:14.515Z,13.50
2023-01-01T13:35:02.880Z,13.50
2023-01-01T13:37:34.077Z,13.50
2023-01-01T13:40:04.802Z,13.50
2023-01-01T13:43:02.343Z,13.50
2023-01-01T13:49:01.881Z,13.40
2023-01-01T13:52:04.261Z,13.40
2023-01-01T13:54:13.102Z,13.40
2023-01-01T13:56:44.445Z,13.40
2023-01-01T13:59:32.609Z,13.30
2023-01-01T14:02:28.446Z,13.30
2023-01-01T14:05:03.158Z,13.30
2023-01-01T14:07:53.393Z,13.30
2023-01-01T14:10:35.544Z,13.30
2023-01-01T14:13:10.544Z,13.30
2023-01-01T14:15:40.921Z,13.30
2023-01-01T14:18:15.026Z,13.30
2023-01-01T14:20:46.645Z,13.30
2023-01-01T14:23:36.578Z,13.30
2023-01-01T14:26:10.020Z,13.30
2023-01-01T14:28:39.315Z,13.30
2023-01-01T14:31:16.916Z,13.30
2023-01-01T14:33:45.695Z,13.20
2023-01-01T14:36:20.732Z,13.20
2023-01-01T14:38:49.969Z,13.20
2023-01-01T14:41:30.800Z,13.20
2023-01-01T14:44:05.729Z,13.20
2023-01-01T14:46:34.127Z,13.20
2023-01-01T14:49:08.472Z,13.20
2023-01-01T14:51:44.153Z,13.10
2023-01-01T14:54:07.578Z,13.10
2023-01-01T14:56:37.962Z,13.10
2023-01-01T14:59:15.971Z,13.10
2023-01-01T15:01:43.647Z,13.10
2023-01-01T15:04:24.405Z,13.10
2023-01-01T15:07:02.709Z,13.10
2023-01-01T15:09:32.229Z,13.10
2023-01-01T15:12:02.200Z,13.10
2023-01-01T15:14:42.604Z,13.10
2023-01-01T15:17:15.638Z,13.10
2023-01-01T15:19:47.314Z,13.10
2023-01-01T15:22:24.873Z,13.10
2023-01-01T15:24:54.095Z,13.10
2023-01-01T15:27:31.445Z,13.00
2023-01-01T15:29:59.843Z,13.10
2023-01-01T15:32:31.329Z,13.00
2023-01-01T15:35:01.515Z,13.10
2023-01-01T15:37:39.110Z,13.10
2023-01-01T15:40:19.907Z,13.00
2023-01-01T15:42:57.969Z,13.00
2023-01-01T15:45:32.212Z,13.00
2023-01-01T15:48:13.012Z,13.00
2023-01-01T15:50:44.900Z,13.00
2023-01-01T15:53:25.222Z,13.10
2023-01-01T15:55:59.407Z,13.10
2023-01-01T15:58:33.305Z,13.10
2023-01-01T16:01:04.847Z,13.00
2023-01-01T16:03:34.639Z,13.00
2023-01-01T16:06:02.598Z,13.00
2023-01-01T16:08:33.524Z,13.00
2023-01-01T16:11:01.145Z,13.00
2023-01-01T16:13:28.865Z,13.00
2023-01-01T16:15:59.701Z,13.00
2023-01-01T16:18:33.569Z,13.00
2023-01-01T16:21:03.188Z,13.00
2023-01-01T16:23:32.345Z,13.00
2023-01-01T16:25:59.876Z,13.00
2023-01-01T16:28:27.685Z,13.00
2023-01-01T16:30:57.624Z,13.00
2023-01-01T16:33:28.999Z,13.00
2023-01-01T16:35:56.316Z,13.00
2023-01-01T16:38:24.621Z,13.00
2023-01-01T16:40:52.844Z,12.90
2023-01-01T16:43:23.283Z,12.90
2023-01-01T16:45:54.755Z,12.90
2023-01-01T16:48:23.107Z,12.90
2023-01-01T16:50:53.894Z,12.90
2023-01-01T16:53:21.709Z,12.90
2023-01-01T16:55:55.313Z,12.90
2023-01-01T16:58:49.114Z,12.90
2023-01-01T17:00:56.829Z,12.90
2023-01-01T17:03:25.228Z,12.90
2023-01-01T17:05:52.714Z,12.90
2023-01-01T17:08:23.034Z,12.90
2023-01-01T17:10:56.195Z,12.90
2023-01-01T17:13:23.598Z,12.80
2023-01-01T17:15:58.637Z,12.80
2023-01-01T17:18:55.330Z,12.80
2023-01-01T17:20:56.160Z,12.80
2023-01-01T17:23:23.547Z,12.70
2023-01-01T17:25:51.394Z,12.80
2023-01-01T17:28:19.325Z,12.80
2023-01-01T17:30:47.533Z,12.80
2023-01-01T17:33:15.549Z,12.80
2023-01-01T17:35:43.278Z,12.80
2023-01-01T17:38:11.777Z,12.80
2023-01-01T17:40:39.202Z,12.70
2023-01-01T17:43:07.921Z,12.80
2023-01-01T17:45:37.305Z,12.80
2023-01-01T17:48:05.201Z,12.80
2023-01-01T17:50:32.607Z,12.70
2023-01-01T17:53:00.405Z,12.80
2023-01-01T17:55:30.472Z,12.70
2023-01-01T17:57:58.621Z,12.80
2023-01-01T18:00:28.410Z,12.70
2023-01-01T18:03:02.912Z,12.80
2023-01-01T18:05:31.182Z,12.80
2023-01-01T18:07:58.883Z,12.80
2023-01-01T18:10:26.933Z,12.70
2023-01-01T18:12:56.473Z,12.70
2023-01-01T18:15:25.205Z,12.70
2023-01-01T18:17:53.082Z,12.70
2023-01-01T18:20:21.655Z,12.70
2023-01-01T18:22:51.513Z,12.80
2023-01-01T18:25:18.817Z,12.80
2023-01-01T18:27:57.193Z,12.80
2023-01-01T18:30:20.183Z,12.80
2023-01-01T18:32:48.303Z,12.80
2023-01-01T18:35:18.722Z,12.70
2023-01-01T18:37:46.484Z,12.80
2023-01-01T18:40:18.006Z,12.70
2023-01-01T18:42:52.706Z,12.70
2023-01-01T18:45:23.976Z,12.70
2023-01-01T18:47:51.817Z,12.70
2023-01-01T18:50:28.568Z,12.70
2023-01-01T18:53:20.588Z,12.70
2023-01-01T18:55:56.081Z,12.70
2023-01-01T18:58:24.837Z,12.70
2023-01-01T19:00:54.154Z,12.70
2023-01-01T19:03:25.734Z,12.70
2023-01-01T19:05:59.616Z,12.70
2023-01-01T19:08:30.516Z,12.70
2023-01-01T19:11:01.087Z,12.70
2023-01-01T19:13:37.179Z,12.70
2023-01-01T19:16:14.775Z,12.70
2023-01-01T19:18:52.450Z,12.70
2023-01-01T19:21:23.533Z,12.70
2023-01-01T19:23:56.936Z,12.60
2023-01-01T19:26:37.196Z,12.60
2023-01-01T19:29:21.049Z,12.60
2023-01-01T19:31:52.018Z,12.60
2023-01-01T19:34:20.262Z,12.60
2023-01-01T19:36:48.497Z,12.60
2023-01-01T19:39:18.289Z,12.70
2023-01-01T19:41:45.962Z,12.70
2023-01-01T19:44:14.789Z,12.70
2023-01-01T19:46:43.249Z,12.70
2023-01-01T19:49:11.184Z,12.70
2023-01-01T19:51:38.687Z,12.70
2023-01-01T19:54:07.650Z,12.70
2023-01-01T19:56:35.740Z,12.60
2023-01-01T19:59:03.584Z,12.60
2023-01-01T20:01:31.540Z,12.60
2023-01-01T20:04:00.271Z,12.70
2023-01-01T20:06:28.234Z,12.70
2023-01-01T20:08:57.231Z,12.70
2023-01-01T20:11:26.897Z,12.70
2023-01-01T20:13:54.829Z,12.70
2023-01-01T20:16:26.027Z,12.70
2023-01-01T20:18:53.948Z,12.70
2023-01-01T20:21:41.518Z,12.70
2023-01-01T20:24:12.406Z,12.70
2023-01-01T20:26:40.238Z,12.70
2023-01-01T20:29:20.025Z,12.70
2023-01-01T20:31:53.062Z,12.70
2023-01-01T20:34:22.240Z,12.70
2023-01-01T20:37:09.409Z,12.70
2023-01-01T20:39:40.566Z,12.70
2023-01-01T20:42:08.733Z,12.70
2023-01-01T20:44:42.096Z,12.60
2023-01-01T20:47:11.938Z,12.60
2023-01-01T20:49:41.166Z,12.60
2023-01-01T20:52:09.084Z,12.60
2023-01-01T20:54:36.819Z,12.60
2023-01-01T20:57:05.105Z,12.60
2023-01-01T20:59:37.646Z,12.60
2023-01-01T21:02:03.471Z,12.60
2023-01-01T21:04:31.100Z,12.60
2023-01-01T21:06:58.630Z,12.60
2023-01-01T21:09:26.426Z,12.60
2023-01-01T21:11:54.192Z,12.60
2023-01-01T21:14:24.869Z,12.60
2023-01-01T21:16:55.525Z,12.60
2023-01-01T21:19:27.185Z,12.60
2023-01-01T21:21:58.737Z,12.60
2023-01-01T21:24:35.760Z,12.60
2023-01-01T21:27:10.083Z,12.60
2023-01-01T21:29:47.259Z,12.60
2023-01-01T21:32:26.083Z,12.60
2023-01-01T21:34:55.637Z,12.60
2023-01-01T21:37:48.191Z,12.50
2023-01-01T21:40:42.713Z,12.50
2023-01-01T21:43:34.064Z,12.50
2023-01-01T21:46:11.541Z,12.50
2023-01-01T21:48:47.212Z,12.50
2023-01-01T21:51:27.433Z,12.50
2023-01-01T21:54:05.146Z,12.50
2023-01-01T21:56:36.341Z,12.50
2023-01-01T21:59:28.630Z,12.50
2023-01-01T22:02:01.108Z,12.50
2023-01-01T22:04:32.755Z,12.50
2023-01-01T22:07:13.224Z,12.50
2023-01-01T22:09:48.173Z,12.50
2023-01-01T22:12:21.097Z,12.50
2023-01-01T22:14:55.688Z,12.50
2023-01-01T22:17:35.033Z,12.50
2023-01-01T22:20:01.586Z,12.50
2023-01-01T22:22:31.879Z,12.50
2023-01-01T22:25:02.597Z,12.50
2023-01-01T22:27:38.834Z,12.50
2023-01-01T22:30:19.749Z,12.50
2023-01-01T22:32:51.816Z,12.50
2023-01-01T22:35:35.995Z,12.50
2023-01-01T22:38:06.213Z,12.40
2023-01-01T22:40:36.935Z,12.50
2023-01-01T22:43:09.093Z,12.40
2023-01-01T22:45:42.762Z,12.40
2023-01-01T22:48:35.243Z,12.40
2023-01-01T22:51:09.412Z,12.40
2023-01-01T22:53:41.999Z,12.40
2023-01-01T22:56:16.777Z,12.40
2023-01-01T22:58:56.515Z,12.40
2023-01-01T23:01:23.614Z,12.40
2023-01-01T23:03:52.340Z,12.50
2023-01-01T23:06:21.652Z,12.50
2023-01-01T23:08:50.810Z,12.50
2023-01-01T23:11:20.244Z,12.40
2023-01-01T23:14:08.775Z,12.40
2023-01-01T23:16:39.839Z,12.40
2023-01-01T23:19:08.641Z,12.40
2023-01-01T23:21:40.105Z,12.40
2023-01-01T23:24:11.208Z,12.40
2023-01-01T23:26:40.644Z,12.40
2023-01-01T23:29:10.514Z,12.40
2023-01-01T23:31:40.435Z,12.40
2023-01-01T23:34:10.034Z,12.40
2023-01-01T23:36:38.541Z,12.40
2023-01-01T23:39:06.463Z,12.40
2023-01-01T23:41:33.919Z,12.40
2023-01-01T23:44:02.168Z,12.40
2023-01-01T23:46:29.632Z,12.40
2023-01-01T23:48:57.535Z,12.40
2023-01-01T23:51:25.523Z,12.40
2023-01-01T23:53:53.976Z,12.40
2023-01-01T23:56:23.401Z,12.40
2023-01-01T23:58:50.841Z,12.40
